Liber, Indiana
Current Conditions -  °F | °C
As of 2:53 PM on Saturday 25 Oct 2014 (Local Time) from KMIE Reporting Station
Clear Clear  
Wind Chill: 74°   Ceiling: Unl
Heat Index: 74°   Visibility: 10mi
Dew Point: 50°   Wind: 17mph
Humidity: 43%   Direction: 300°WNW
Pressure: 29.9"   Gusts: 24mph
Location:  40.4312°N, 85.0058°W
Report Text: KMIE 251853Z 30015G21KT 10SM CLR 23/10 A2990 RMK AO2 SLP120 T02330100
Loading
Personal Weather Stations






























Interactive Weather Map
Tropical Storm Tracking
New forecast layout! Learn more

10-Day Weather Forecast

Advertisements
Track Severe Weather on mobile